createdAt,value
2023-12-20T00:00:49.585Z,38.17
2023-12-20T00:03:19.264Z,29.80
2023-12-20T00:05:48.637Z,26.42
2023-12-20T00:08:17.972Z,37.13
2023-12-20T00:10:48.417Z,38.65
2023-12-20T00:13:18.189Z,43.75
2023-12-20T00:15:50.748Z,29.20
2023-12-20T00:18:20.317Z,31.90
2023-12-20T00:20:53.383Z,42.35
2023-12-20T00:23:24.593Z,39.72
2023-12-20T00:25:55.649Z,37.00
2023-12-20T00:28:24.718Z,34.65
2023-12-20T00:30:54.072Z,37.13
2023-12-20T00:33:29.240Z,33.17
2023-12-20T00:35:59.713Z,28.98
2023-12-20T00:38:28.847Z,32.47
2023-12-20T00:40:59.895Z,35.90
2023-12-20T00:43:28.990Z,37.58
2023-12-20T00:45:58.390Z,30.50
2023-12-20T00:48:29.895Z,30.17
2023-12-20T00:50:59.735Z,31.52
2023-12-20T00:53:28.859Z,30.98
2023-12-20T00:55:59.989Z,31.12
2023-12-20T00:58:29.403Z,33.93
2023-12-20T01:00:57.843Z,35.50
2023-12-20T01:03:26.655Z,33.00
2023-12-20T01:05:55.808Z,30.50
2023-12-20T01:08:25.309Z,27.45
2023-12-20T01:10:54.752Z,30.52
2023-12-20T01:13:25.681Z,32.38
2023-12-20T01:18:29.187Z,32.60
2023-12-20T01:20:58.412Z,33.47
2023-12-20T01:23:27.724Z,31.05
2023-12-20T01:25:57.671Z,35.25
2023-12-20T01:28:28.979Z,29.40
2023-12-20T01:31:01.643Z,29.08
2023-12-20T01:33:30.702Z,34.75
2023-12-20T01:36:00.414Z,28.20
2023-12-20T01:38:29.353Z,36.70
2023-12-20T01:40:58.676Z,32.50
2023-12-20T01:43:31.928Z,33.05
2023-12-20T01:46:08.366Z,35.00
2023-12-20T01:48:38.965Z,34.42
2023-12-20T01:51:08.830Z,35.20
2023-12-20T01:53:38.313Z,38.78
2023-12-20T01:56:08.723Z,31.17
2023-12-20T01:58:41.588Z,39.85
2023-12-20T02:01:14.509Z,33.17
2023-12-20T02:03:44.254Z,36.28
2023-12-20T02:06:14.102Z,33.40
2023-12-20T02:08:43.026Z,36.53
2023-12-20T02:11:12.809Z,35.67
2023-12-20T02:13:46.335Z,36.22
2023-12-20T02:16:23.723Z,34.85
2023-12-20T02:18:53.700Z,40.67
2023-12-20T02:21:34.257Z,35.08
2023-12-20T02:24:03.492Z,33.25
2023-12-20T02:26:34.324Z,37.30
2023-12-20T02:29:04.612Z,35.47
2023-12-20T02:31:33.880Z,35.55
2023-12-20T02:34:03.696Z,33.00
2023-12-20T02:36:34.193Z,35.47
2023-12-20T02:39:03.673Z,36.85
2023-12-20T02:41:32.532Z,33.70
2023-12-20T02:44:01.288Z,37.45
2023-12-20T02:46:30.636Z,37.85
2023-12-20T02:48:59.623Z,36.15
2023-12-20T02:51:28.533Z,39.13
2023-12-20T02:53:59.049Z,42.65
2023-12-20T02:56:28.303Z,37.75
2023-12-20T02:58:57.614Z,37.35
2023-12-20T03:01:26.727Z,37.88
2023-12-20T03:03:56.220Z,39.20
2023-12-20T03:06:25.941Z,36.85
2023-12-20T03:08:55.422Z,33.25
2023-12-20T03:11:29.110Z,32.85
2023-12-20T03:13:58.604Z,33.10
2023-12-20T03:16:30.469Z,39.00
2023-12-20T03:19:00.072Z,41.90
2023-12-20T03:21:29.460Z,35.38
2023-12-20T03:23:58.350Z,35.75
2023-12-20T03:26:28.874Z,39.25
2023-12-20T03:28:58.094Z,38.05
2023-12-20T03:31:30.793Z,34.42
2023-12-20T03:36:31.824Z,35.83
2023-12-20T03:39:06.615Z,36.08
2023-12-20T03:41:37.619Z,35.97
2023-12-20T03:44:06.978Z,35.75
2023-12-20T03:46:37.717Z,32.20
2023-12-20T03:49:07.125Z,34.10
2023-12-20T03:51:36.245Z,38.63
2023-12-20T03:54:05.366Z,37.83
2023-12-20T03:56:34.507Z,36.30
2023-12-20T03:59:05.746Z,35.75
2023-12-20T04:01:40.746Z,30.27
2023-12-20T04:04:09.766Z,30.35
2023-12-20T04:06:39.001Z,34.40
2023-12-20T04:09:10.473Z,32.38
2023-12-20T04:11:39.786Z,31.25
2023-12-20T04:14:11.526Z,35.72
2023-12-20T04:16:43.816Z,32.55
2023-12-20T04:19:14.745Z,35.50
2023-12-20T04:21:44.258Z,34.63
2023-12-20T04:24:16.228Z,36.53
2023-12-20T04:26:45.469Z,29.98
2023-12-20T04:29:16.004Z,33.22
2023-12-20T04:31:48.778Z,35.55
2023-12-20T04:36:48.002Z,30.88
2023-12-20T04:39:17.257Z,34.22
2023-12-20T04:41:46.125Z,35.28
2023-12-20T04:44:16.744Z,37.13
2023-12-20T04:46:48.904Z,48.78
2023-12-20T04:49:18.796Z,39.53
2023-12-20T04:51:48.063Z,60.65
2023-12-20T04:56:49.534Z,35.10
2023-12-20T04:59:20.439Z,31.65
2023-12-20T05:01:53.888Z,33.83
2023-12-20T05:04:22.840Z,38.50
2023-12-20T05:06:52.489Z,36.90
2023-12-20T05:09:22.252Z,40.30
2023-12-20T05:11:51.703Z,29.50
2023-12-20T05:14:22.237Z,34.15
2023-12-20T05:16:58.325Z,28.87
2023-12-20T05:19:27.918Z,39.03
2023-12-20T05:21:57.296Z,34.53
2023-12-20T05:24:31.732Z,31.65
2023-12-20T05:27:00.821Z,32.75
2023-12-20T05:29:31.133Z,35.90
2023-12-20T05:32:05.806Z,29.52
2023-12-20T05:34:35.165Z,33.47
2023-12-20T05:37:05.012Z,40.25
2023-12-20T05:39:34.147Z,39.97
2023-12-20T05:42:03.137Z,38.00
2023-12-20T05:44:38.602Z,27.33
2023-12-20T05:47:07.756Z,43.83
2023-12-20T05:49:36.906Z,29.48
2023-12-20T05:52:07.163Z,28.17
2023-12-20T05:54:36.461Z,29.30
2023-12-20T05:57:05.837Z,30.37
2023-12-20T05:59:34.883Z,35.17
2023-12-20T06:02:09.102Z,29.80
2023-12-20T06:04:38.707Z,48.80
2023-12-20T06:07:08.002Z,39.28
2023-12-20T06:09:37.239Z,42.25
2023-12-20T06:12:07.485Z,47.78
2023-12-20T06:14:36.762Z,29.83
2023-12-20T06:19:47.967Z,28.98
2023-12-20T06:22:17.153Z,39.30
2023-12-20T06:24:46.455Z,32.35
2023-12-20T06:27:14.556Z,43.25
2023-12-20T06:29:45.519Z,28.98
2023-12-20T06:32:19.583Z,33.83
2023-12-20T06:34:52.948Z,31.17
2023-12-20T06:37:22.494Z,29.87
2023-12-20T06:39:51.644Z,34.40
2023-12-20T06:42:21.040Z,36.58
2023-12-20T06:44:51.392Z,30.80
2023-12-20T06:47:22.114Z,34.42
2023-12-20T06:49:54.457Z,29.55
2023-12-20T06:52:23.726Z,30.80
2023-12-20T06:54:53.309Z,36.17
2023-12-20T06:57:24.754Z,31.00
2023-12-20T06:59:54.342Z,26.30
2023-12-20T07:02:27.093Z,37.38
2023-12-20T07:04:56.441Z,39.58
2023-12-20T07:07:25.633Z,32.75
2023-12-20T07:09:54.763Z,27.85
2023-12-20T07:12:24.695Z,31.05
2023-12-20T07:14:53.912Z,29.15
2023-12-20T07:17:25.633Z,28.85
2023-12-20T07:19:56.010Z,26.12
2023-12-20T07:22:25.364Z,29.23
2023-12-20T07:24:56.176Z,30.15
2023-12-20T07:27:25.671Z,30.40
2023-12-20T07:29:55.465Z,28.48
2023-12-20T07:32:28.096Z,40.40
2023-12-20T07:34:58.810Z,50.83
2023-12-20T07:37:27.777Z,35.35
2023-12-20T07:39:57.062Z,89.75
2023-12-20T07:42:26.421Z,59.55
2023-12-20T07:44:56.621Z,38.00
2023-12-20T07:47:28.539Z,36.60
2023-12-20T07:49:59.430Z,38.10
2023-12-20T07:52:28.710Z,35.25
2023-12-20T07:54:58.810Z,32.72
2023-12-20T07:57:34.251Z,36.08
2023-12-20T08:00:05.245Z,37.42
2023-12-20T08:02:34.459Z,37.05
2023-12-20T08:05:04.869Z,37.28
2023-12-20T08:07:34.761Z,37.22
2023-12-20T08:10:03.959Z,34.28
2023-12-20T08:12:34.781Z,38.15
2023-12-20T08:15:05.248Z,37.08
2023-12-20T08:17:36.461Z,38.58
2023-12-20T08:20:09.076Z,38.00
2023-12-20T08:22:38.175Z,37.75
2023-12-20T08:27:48.353Z,33.83
2023-12-20T08:30:24.210Z,36.30
2023-12-20T08:32:53.481Z,33.08
2023-12-20T08:35:25.457Z,35.05
2023-12-20T08:37:54.929Z,35.55
2023-12-20T08:40:25.681Z,37.58
2023-12-20T08:42:56.627Z,36.33
2023-12-20T08:45:25.893Z,43.30
2023-12-20T08:48:01.081Z,37.38
2023-12-20T08:50:33.714Z,33.25
2023-12-20T08:53:03.317Z,33.85
2023-12-20T08:55:34.965Z,33.60
2023-12-20T08:58:04.156Z,33.42
2023-12-20T09:00:33.232Z,31.87
2023-12-20T09:03:05.857Z,51.28
2023-12-20T09:05:38.231Z,34.03
2023-12-20T09:10:38.418Z,31.10
2023-12-20T09:13:10.940Z,34.70
2023-12-20T09:15:40.211Z,33.63
2023-12-20T09:18:12.684Z,33.70
2023-12-20T09:20:44.472Z,32.80
2023-12-20T09:23:14.552Z,32.40
2023-12-20T09:25:45.323Z,33.28
2023-12-20T09:30:51.738Z,33.78
2023-12-20T09:33:28.288Z,30.50
2023-12-20T09:35:58.757Z,27.60
2023-12-20T09:38:28.088Z,30.92
2023-12-20T09:40:58.243Z,30.25
2023-12-20T09:43:29.901Z,31.05
2023-12-20T09:46:03.584Z,29.40
2023-12-20T09:48:35.917Z,27.58
2023-12-20T09:51:06.697Z,29.08
2023-12-20T09:53:39.261Z,30.30
2023-12-20T09:56:08.849Z,26.23
2023-12-20T09:58:39.478Z,26.83
2023-12-20T10:01:10.537Z,23.38
2023-12-20T10:03:43.651Z,23.77
2023-12-20T10:06:14.731Z,21.67
2023-12-20T10:08:44.466Z,22.05
2023-12-20T10:11:13.633Z,22.77
2023-12-20T10:13:45.322Z,22.87
2023-12-20T10:16:15.103Z,22.90
2023-12-20T10:18:50.433Z,22.70
2023-12-20T10:21:21.455Z,21.50
2023-12-20T10:23:51.805Z,21.52
2023-12-20T10:26:22.473Z,23.00
2023-12-20T10:28:54.108Z,22.85
2023-12-20T10:31:32.061Z,23.80
2023-12-20T10:34:02.465Z,23.65
2023-12-20T10:36:34.427Z,20.83
2023-12-20T10:39:12.649Z,22.87
2023-12-20T10:41:43.600Z,22.23
2023-12-20T10:44:13.236Z,21.77
2023-12-20T10:46:48.809Z,20.60
2023-12-20T10:49:19.627Z,21.10
2023-12-20T10:51:53.428Z,23.27
2023-12-20T10:54:22.788Z,19.90
2023-12-20T10:56:54.971Z,22.48
2023-12-20T10:59:27.188Z,20.77
2023-12-20T11:01:58.498Z,21.35
2023-12-20T11:04:41.733Z,21.50
2023-12-20T11:07:22.171Z,21.45
2023-12-20T11:10:02.656Z,20.62
2023-12-20T11:12:41.481Z,19.55
2023-12-20T11:15:10.933Z,21.42
2023-12-20T11:17:57.259Z,20.37
2023-12-20T11:20:38.067Z,21.17
2023-12-20T11:23:10.769Z,20.02
2023-12-20T11:28:25.956Z,19.77
2023-12-20T11:33:33.289Z,19.33
2023-12-20T11:36:04.120Z,20.55
2023-12-20T11:38:39.684Z,20.20
2023-12-20T11:41:09.309Z,20.50
2023-12-20T11:43:39.909Z,20.23
2023-12-20T11:46:10.990Z,20.55
2023-12-20T11:48:41.921Z,20.30
2023-12-20T11:51:14.732Z,19.85
2023-12-20T11:53:45.478Z,19.75
2023-12-20T11:56:15.093Z,19.98
2023-12-20T11:58:44.646Z,19.87
2023-12-20T12:01:14.070Z,20.12
2023-12-20T12:03:44.139Z,19.30
2023-12-20T12:06:14.483Z,26.52
2023-12-20T12:08:48.358Z,31.40
2023-12-20T12:11:17.725Z,21.20
2023-12-20T12:13:47.755Z,30.85
2023-12-20T12:16:20.186Z,18.50
2023-12-20T12:18:59.503Z,15.13
2023-12-20T12:21:33.132Z,23.02
2023-12-20T12:24:16.457Z,20.35
2023-12-20T12:26:56.565Z,16.60
2023-12-20T12:29:35.176Z,11.32
2023-12-20T12:32:08.052Z,12.30
2023-12-20T12:34:43.543Z,11.93
2023-12-20T12:37:13.891Z,10.13
2023-12-20T12:39:44.563Z,10.50
2023-12-20T12:42:17.402Z,10.18
2023-12-20T12:44:46.654Z,11.12
2023-12-20T12:47:16.495Z,11.25
2023-12-20T12:49:45.686Z,16.67
2023-12-20T12:52:15.383Z,12.25
2023-12-20T12:54:46.417Z,10.93
2023-12-20T12:57:24.988Z,10.95
2023-12-20T12:59:54.807Z,10.52
2023-12-20T13:02:24.012Z,11.12
2023-12-20T13:04:53.377Z,11.57
2023-12-20T13:07:22.572Z,11.45
2023-12-20T13:09:53.765Z,12.35
2023-12-20T13:12:23.653Z,12.48
2023-12-20T13:14:56.163Z,12.10
2023-12-20T13:17:25.513Z,11.93
2023-12-20T13:19:58.016Z,10.80
2023-12-20T13:25:03.539Z,12.30
2023-12-20T13:27:32.765Z,14.90
2023-12-20T13:30:02.251Z,13.90
2023-12-20T13:32:32.401Z,13.52
2023-12-20T13:35:02.106Z,14.90
2023-12-20T13:37:31.323Z,14.57
2023-12-20T13:40:02.807Z,15.05
2023-12-20T13:42:32.264Z,15.45
2023-12-20T13:45:01.646Z,15.13
2023-12-20T13:47:31.470Z,16.92
2023-12-20T13:50:01.448Z,17.62
2023-12-20T13:52:30.744Z,17.33
2023-12-20T13:55:03.293Z,16.23
2023-12-20T14:00:16.077Z,15.60
2023-12-20T14:02:45.641Z,17.42
2023-12-20T14:05:16.259Z,16.30
2023-12-20T14:07:50.052Z,14.05
2023-12-20T14:10:21.358Z,14.73
2023-12-20T14:12:51.410Z,15.55
2023-12-20T14:15:20.506Z,14.23
2023-12-20T14:17:50.019Z,15.98
2023-12-20T14:20:19.588Z,17.30
2023-12-20T14:22:48.708Z,16.05
2023-12-20T14:25:18.230Z,14.63
2023-12-20T14:27:51.419Z,16.83
2023-12-20T14:30:27.450Z,18.35
2023-12-20T14:33:03.189Z,16.48
2023-12-20T14:35:32.449Z,15.77
2023-12-20T14:38:02.276Z,14.95
2023-12-20T14:40:37.160Z,16.65
2023-12-20T14:43:08.083Z,16.95
2023-12-20T14:45:37.485Z,16.27
2023-12-20T14:50:38.987Z,22.92
2023-12-20T14:53:08.191Z,26.83
2023-12-20T14:55:37.514Z,20.75
2023-12-20T14:58:08.134Z,19.60
2023-12-20T15:00:37.291Z,26.12
2023-12-20T15:03:08.201Z,35.10
2023-12-20T15:05:38.235Z,19.52
2023-12-20T15:08:08.003Z,16.67
2023-12-20T15:10:37.667Z,16.33
2023-12-20T15:13:08.729Z,13.52
2023-12-20T15:15:39.020Z,14.00
2023-12-20T15:18:08.208Z,14.18
2023-12-20T15:20:38.112Z,13.90
2023-12-20T15:23:08.549Z,13.73
2023-12-20T15:25:38.201Z,14.57
2023-12-20T15:28:11.607Z,13.75
2023-12-20T15:30:40.916Z,15.82
2023-12-20T15:33:10.193Z,14.38
2023-12-20T15:35:40.472Z,13.48
2023-12-20T15:38:10.297Z,15.75
2023-12-20T15:40:39.489Z,14.27
2023-12-20T15:43:10.993Z,16.27
2023-12-20T15:45:41.171Z,16.60
2023-12-20T15:48:12.642Z,14.90
2023-12-20T15:50:42.040Z,15.93
2023-12-20T15:53:11.002Z,19.05
2023-12-20T15:55:40.904Z,18.52
2023-12-20T15:58:11.861Z,16.42
2023-12-20T16:00:43.005Z,37.08
2023-12-20T16:03:24.156Z,25.95
2023-12-20T16:05:56.276Z,16.98
2023-12-20T16:08:25.851Z,16.90
2023-12-20T16:10:55.073Z,15.45
2023-12-20T16:13:25.614Z,14.48
2023-12-20T16:15:55.702Z,16.80
2023-12-20T16:18:25.139Z,15.65
2023-12-20T16:20:54.609Z,18.35
2023-12-20T16:23:23.546Z,15.88
2023-12-20T16:25:52.445Z,17.08
2023-12-20T16:28:25.015Z,13.20
2023-12-20T16:30:57.734Z,13.23
2023-12-20T16:33:27.392Z,13.23
2023-12-20T16:35:58.538Z,11.30
2023-12-20T16:38:27.815Z,15.52
2023-12-20T16:40:57.177Z,14.02
2023-12-20T16:43:26.201Z,13.38
2023-12-20T16:45:57.506Z,11.70
2023-12-20T16:48:26.703Z,13.23
2023-12-20T16:50:56.470Z,12.90
2023-12-20T16:53:25.836Z,13.70
2023-12-20T16:55:54.876Z,14.60
2023-12-20T16:58:24.391Z,16.70
2023-12-20T17:00:53.604Z,14.43
2023-12-20T17:03:26.491Z,14.50
2023-12-20T17:05:55.870Z,14.55
2023-12-20T17:08:25.264Z,14.35
2023-12-20T17:10:54.635Z,15.48
2023-12-20T17:13:23.878Z,17.27
2023-12-20T17:15:53.348Z,17.40
2023-12-20T17:18:23.813Z,17.83
2023-12-20T17:20:53.165Z,15.07
2023-12-20T17:23:22.213Z,15.70
2023-12-20T17:25:51.498Z,15.10
2023-12-20T17:28:21.097Z,16.37
2023-12-20T17:30:53.745Z,15.38
2023-12-20T17:33:24.842Z,16.08
2023-12-20T17:35:56.456Z,16.52
2023-12-20T17:38:26.096Z,18.08
2023-12-20T17:40:58.397Z,16.98
2023-12-20T17:43:27.984Z,16.70
2023-12-20T17:45:57.019Z,16.45
2023-12-20T17:48:27.839Z,17.62
2023-12-20T17:50:57.210Z,18.65
2023-12-20T17:53:29.202Z,19.20
2023-12-20T17:58:28.509Z,16.08
2023-12-20T18:00:57.899Z,18.62
2023-12-20T18:03:30.490Z,17.08
2023-12-20T18:06:01.263Z,21.08
2023-12-20T18:08:34.956Z,23.58
2023-12-20T18:11:06.611Z,20.45
2023-12-20T18:13:38.146Z,20.45
2023-12-20T18:16:18.186Z,21.12
2023-12-20T18:18:50.825Z,18.95
2023-12-20T18:21:21.819Z,20.02
2023-12-20T18:23:57.128Z,20.35
2023-12-20T18:26:36.965Z,22.98
2023-12-20T18:29:10.983Z,21.95
2023-12-20T18:31:44.160Z,22.70
2023-12-20T18:34:16.823Z,20.23
2023-12-20T18:36:49.595Z,18.12
2023-12-20T18:39:21.476Z,17.15
2023-12-20T18:41:51.976Z,19.40
2023-12-20T18:44:34.832Z,19.23
2023-12-20T18:47:08.767Z,19.08
2023-12-20T18:49:42.196Z,18.27
2023-12-20T18:52:13.597Z,17.83
2023-12-20T18:54:45.460Z,19.45
2023-12-20T18:57:16.406Z,19.87
2023-12-20T18:59:48.423Z,22.13
2023-12-20T19:02:19.623Z,25.45
2023-12-20T19:04:53.635Z,24.12
2023-12-20T19:07:24.717Z,33.97
2023-12-20T19:09:56.024Z,28.58
2023-12-20T19:12:27.565Z,38.85
2023-12-20T19:15:02.570Z,29.10
2023-12-20T19:17:33.993Z,36.15
2023-12-20T19:20:08.935Z,38.07
2023-12-20T19:22:40.459Z,42.75
2023-12-20T19:25:14.724Z,35.72
2023-12-20T19:27:51.701Z,50.15
2023-12-20T19:30:24.383Z,53.28
2023-12-20T19:32:55.712Z,57.53
2023-12-20T19:35:29.850Z,77.65
2023-12-20T19:38:01.324Z,72.72
2023-12-20T19:40:34.102Z,77.03
2023-12-20T19:43:09.393Z,66.40
2023-12-20T19:45:41.638Z,49.72
2023-12-20T19:48:13.521Z,52.20
2023-12-20T19:50:49.606Z,45.80
2023-12-20T19:53:24.558Z,34.63
2023-12-20T19:55:59.774Z,28.33
2023-12-20T20:01:04.555Z,24.10
2023-12-20T20:03:38.056Z,23.05
2023-12-20T20:06:13.135Z,23.48
2023-12-20T20:08:47.185Z,21.02
2023-12-20T20:11:29.782Z,20.60
2023-12-20T20:14:08.466Z,18.10
2023-12-20T20:16:40.593Z,17.17
2023-12-20T20:19:13.427Z,14.85
2023-12-20T20:21:49.787Z,18.30
2023-12-20T20:24:34.600Z,36.42
2023-12-20T20:27:07.028Z,35.55
2023-12-20T20:29:39.944Z,21.67
2023-12-20T20:32:18.221Z,21.08
2023-12-20T20:34:50.344Z,19.95
2023-12-20T20:37:26.043Z,19.80
2023-12-20T20:40:03.514Z,18.77
2023-12-20T20:42:34.889Z,18.15
2023-12-20T20:45:07.683Z,16.27
2023-12-20T20:47:39.097Z,17.00
2023-12-20T20:50:12.241Z,17.70
2023-12-20T20:52:48.256Z,19.90
2023-12-20T20:55:21.204Z,17.10
2023-12-20T20:57:53.489Z,17.62
2023-12-20T21:00:23.677Z,17.52
2023-12-20T21:02:53.003Z,16.20
2023-12-20T21:05:22.461Z,17.12
2023-12-20T21:07:53.770Z,18.58
2023-12-20T21:10:29.248Z,16.27
2023-12-20T21:12:58.090Z,16.48
2023-12-20T21:15:27.259Z,17.60
2023-12-20T21:17:56.562Z,16.60
2023-12-20T21:20:25.662Z,17.75
2023-12-20T21:22:59.718Z,18.12
2023-12-20T21:25:29.057Z,19.12
2023-12-20T21:27:58.268Z,17.95
2023-12-20T21:30:27.354Z,17.27
2023-12-20T21:32:56.714Z,19.00
2023-12-20T21:35:29.691Z,16.70
2023-12-20T21:38:00.034Z,17.62
2023-12-20T21:40:29.288Z,15.98
2023-12-20T21:42:58.698Z,16.30
2023-12-20T21:45:27.785Z,19.42
2023-12-20T21:47:57.462Z,19.73
2023-12-20T21:50:26.845Z,19.30
2023-12-20T21:52:56.429Z,17.80
2023-12-20T21:55:26.787Z,16.02
2023-12-20T21:57:55.881Z,16.65
2023-12-20T22:00:25.240Z,14.55
2023-12-20T22:02:54.814Z,10.95
2023-12-20T22:05:24.108Z,10.15
2023-12-20T22:07:56.867Z,10.98
2023-12-20T22:10:30.883Z,10.80
2023-12-20T22:13:00.753Z,9.73
2023-12-20T22:15:30.241Z,9.25
2023-12-20T22:18:00.091Z,8.48
2023-12-20T22:20:30.623Z,8.70
2023-12-20T22:22:59.970Z,8.07
2023-12-20T22:25:39.237Z,10.32
2023-12-20T22:28:08.462Z,9.00
2023-12-20T22:30:38.004Z,8.52
2023-12-20T22:33:06.965Z,8.35
2023-12-20T22:35:36.566Z,8.45
2023-12-20T22:38:06.079Z,8.60
2023-12-20T22:40:39.892Z,8.55
2023-12-20T22:43:09.270Z,9.60
2023-12-20T22:45:57.481Z,8.40
2023-12-20T22:48:27.413Z,8.95
2023-12-20T22:50:56.620Z,9.23
2023-12-20T22:53:25.808Z,8.68
2023-12-20T22:55:56.942Z,8.88
2023-12-20T22:58:27.054Z,8.25
2023-12-20T23:00:56.598Z,7.95
2023-12-20T23:03:26.643Z,8.93
2023-12-20T23:05:55.851Z,9.80
2023-12-20T23:08:25.114Z,10.68
2023-12-20T23:10:54.236Z,10.95
2023-12-20T23:13:27.449Z,11.02
2023-12-20T23:15:58.504Z,12.65
2023-12-20T23:18:27.586Z,12.50
2023-12-20T23:20:57.648Z,13.77
2023-12-20T23:23:26.489Z,12.93
2023-12-20T23:25:58.950Z,12.18
2023-12-20T23:28:29.512Z,11.98
2023-12-20T23:30:58.706Z,11.93
2023-12-20T23:33:28.040Z,13.20
2023-12-20T23:35:57.557Z,11.57
2023-12-20T23:38:27.899Z,12.32
2023-12-20T23:40:56.995Z,12.23
2023-12-20T23:43:25.985Z,11.98
2023-12-20T23:45:57.065Z,11.45
2023-12-20T23:48:26.259Z,11.77
2023-12-20T23:50:55.733Z,11.73
2023-12-20T23:53:24.662Z,12.07
2023-12-20T23:55:54.357Z,10.40
2023-12-20T23:58:23.204Z,11.15
